Gordon, WV (25093)

9:12 PM EST on December 21, 2014 (GMT -0500)
Burl's Weather, 314 Shawnee Circle,Switzer Wv. 25647 | Change Station
CLOSE
Current Station
Personal Weather Station
Location: Rossmore, WV
Elevation: 722 ft
Nearby Weather Stations

Elev 722 ft 37.81 °N, 81.98 °W | Updated 1 second ago

Clear
Clear
30.4 °F
Feels Like 30 °F
N
0.0
Wind Variable Wind from SSE
Gusts 0.0 mph

Today
High -- | Low -- °F
--% Chance of Precip.
Yesterday
High -- | Low -- °F
Precip. -- in
7:39 AM 5:10 PM
New Moon, 0% visible
Pressure 30.19 in
Visibility 10.0 miles
Clouds Scattered Clouds 30000 ft
Windchill 30 °F
Dew Point 29 °F
Humidity 94%
Rainfall 0.00 in
Snow Depth Not available.
UV 0 out of 12
Pollen .10 out of 12
Air Quality Not available.
Flu Activity Not available.
METAR KCRW 220154Z 00000KT 10SM SCT300 00/M03 A3016 RMK AO2 SLP221 T00001033

More Conditions Fewer Conditions

Pressure 30.19 in
Visibility 10.0 miles
Clouds Scattered Clouds 30000 ft
Windchill 30 °F
Dew Point 29 °F
Humidity 94%
Rainfall 0.00 in
Snow Depth Not available.
UV 0 out of 12
Pollen .10 out of 12
Air Quality Not available.
Flu Activity Not available.
METAR KCRW 220154Z 00000KT 10SM SCT300 00/M03 A3016 RMK AO2 SLP221 T00001033

More Conditions Fewer Conditions

10-Day Weather Forecast

Almanac

Astronomy

Dec. 21, 2014 Rise Set
Actual Time
Civil Twilight
Nautical Twilight
Astronomical Twilight
Moon
Length of Visible Light
Length of Day
Tomorrow will be .
, % of the Moon is Illuminated

Today's Extremes

State Highs State Lows

Community

WunderPhotos

Upload Photos

1,779,524 photos uploaded!

WunderBlogs® & News

Nearby

Air Quality

  Air Quality AQ Index Pollutant
Not available.

Snow Depth

Station Depth Elevation

Earthquake Activity

City Distance Mag. Time & Date
Minimum magnitude displayed is 2.5.

Coastal Water Temperatures

Place Temperature

Nearby Weather Stations